| time (UTC) | temp F | wind direction | speed MPH | gust MPH | rain 1hr in | rain 24hr in | rain mn in | humidity % | barometer mb |
| 20260506050708 | 59 | 0.0 | 0.0 | 0.00 | 0.00 | 0.00 | 63 | 1021.4 | |
| 20260506044708 | 58 | 0.0 | 0.0 | 0.00 | 0.00 | 0.00 | 61 | 1021.3 | |
| 20260506043708 | 56 | 0.0 | 0.0 | 0.00 | 0.00 | 0.00 | 66 | 1021.3 | |
| 20260506042708 | 54 | 0.0 | 0.0 | 0.00 | 0.00 | 0.00 | 68 | 1021.4 | |
| 20260506041708 | 52 | 0.0 | 0.0 | 0.00 | 0.00 | 0.00 | 70 | 1021.2 | |
| 20260506040708 | 52 | 0.0 | 0.0 | 0.00 | 0.00 | 0.00 | 70 | 1021.2 | |
| 20260506035708 | 52 | 0.0 | 0.0 | 0.00 | 0.00 | 0.00 | 70 | 1021.1 | |
| 20260506034708 | 51 | 0.0 | 0.0 | 0.00 | 0.00 | 0.00 | 70 | 1021.2 | |
| 20260506033708 | 51 | 0.0 | 0.0 | 0.00 | 0.00 | 0.00 | 69 | 1021.2 | |
| 20260506032708 | 51 | 0.0 | 0.0 | 0.00 | 0.00 | 0.00 | 70 | 1021.1 | |
| 20260506031710 | 51 | 0.0 | 0.0 | 0.00 | 0.00 | 0.00 | 70 | 1021.1 | |
| 20260506030708 | 52 | 0.0 | 0.0 | 0.00 | 0.00 | 0.00 | 70 | 1021.0 | |
| 20260506025708 | 52 | 0.0 | 0.0 | 0.00 | 0.00 | 0.00 | 67 | 1021.1 | |
| 20260506024708 | 52 | 0.0 | 0.0 | 0.00 | 0.00 | 0.00 | 68 | 1021.0 | |
| 20260506023708 | 53 | 0.0 | 0.0 | 0.00 | 0.00 | 0.00 | 68 | 1021.0 | |
| 20260506022708 | 53 | 0.0 | 0.0 | 0.00 | 0.00 | 0.00 | 67 | 1021.0 | |
| 20260506021708 | 54 | 0.0 | 0.0 | 0.00 | 0.00 | 0.00 | 67 | 1020.9 | |
| 20260506020708 | 54 | 0.0 | 0.0 | 0.00 | 0.00 | 0.00 | 67 | 1021.0 | |
| 20260506015708 | 54 | 0.0 | 0.0 | 0.00 | 0.00 | 0.00 | 66 | 1020.9 | |
| 20260506014708 | 55 | 0.0 | 0.0 | 0.00 | 0.00 | 0.00 | 64 | 1020.8 | |
| 20260506013708 | 55 | 0.0 | 0.0 | 0.00 | 0.00 | 0.00 | 66 | 1020.8 | |
| 20260506012708 | 55 | 0.0 | 0.0 | 0.00 | 0.00 | 0.00 | 66 | 1020.8 | |
| 20260506011708 | 56 | 0.0 | 0.0 | 0.00 | 0.00 | 0.00 | 64 | 1020.7 | |
| 20260506010708 | 57 | 0.0 | 0.0 | 0.00 | 0.00 | 0.00 | 62 | 1020.7 | |
| 20260506005708 | 57 | 0.0 | 0.0 | 0.00 | 0.00 | 0.00 | 61 | 1020.5 | |
| 20260506004708 | 57 | 0.0 | 0.0 | 0.00 | 0.00 | 0.00 | 61 | 1020.6 | |
| 20260506003708 | 57 | 0.0 | 0.0 | 0.00 | 0.00 | 0.00 | 61 | 1020.7 | |
| 20260506002708 | 57 | 0.0 | 0.0 | 0.00 | 0.00 | 0.00 | 63 | 1020.7 | |
| 20260506001708 | 56 | 0.0 | 0.0 | 0.00 | 0.00 | 0.00 | 60 | 1020.7 | |
| 20260506000708 | 59 | 0.0 | 0.0 | 0.00 | 0.00 | 0.00 | 57 | 1020.7 | |
| 20260505235708 | 59 | 0.0 | 0.0 | 0.00 | 0.00 | 0.00 | 56 | 1020.8 | |
| 20260505234708 | 60 | 0.0 | 0.0 | 0.00 | 0.00 | 0.00 | 55 | 1020.7 | |
| 20260505233708 | 61 | 0.0 | 0.0 | 0.00 | 0.00 | 0.00 | 55 | 1020.8 | |
| 20260505232708 | 62 | 0.0 | 0.0 | 0.00 | 0.00 | 0.00 | 52 | 1020.9 | |
| 20260505231708 | 63 | 0.0 | 0.0 | 0.00 | 0.00 | 0.00 | 51 | 1020.9 | |
| 20260505230708 | 63 | 0.0 | 0.0 | 0.00 | 0.00 | 0.00 | 51 | 1020.9 | |
| 20260505225708 | 62 | 0.0 | 0.0 | 0.00 | 0.00 | 0.00 | 52 | 1021.0 | |
| 20260505224708 | 63 | 0.0 | 0.0 | 0.00 | 0.00 | 0.00 | 51 | 1020.9 | |
| 20260505223708 | 63 | 0.0 | 0.0 | 0.00 | 0.00 | 0.00 | 51 | 1020.9 | |
| 20260505222708 | 63 | 0.0 | 0.0 | 0.00 | 0.00 | 0.00 | 50 | 1020.9 | |
| 20260505221708 | 63 | 0.0 | 0.0 | 0.00 | 0.00 | 0.00 | 50 | 1020.9 | |
| 20260505220708 | 64 | 0.0 | 0.0 | 0.00 | 0.00 | 0.00 | 49 | 1020.9 | |
| 20260505215708 | 64 | 0.0 | 0.0 | 0.00 | 0.00 | 0.00 | 49 | 1021.0 | |
| 20260505214708 | 63 | 0.0 | 0.0 | 0.00 | 0.00 | 0.00 | 51 | 1021.0 | |
| 20260505213708 | 62 | 0.0 | 0.0 | 0.00 | 0.00 | 0.00 | 53 | 1021.1 | |
| 20260505212708 | 62 | 0.0 | 0.0 | 0.00 | 0.00 | 0.00 | 52 | 1021.2 | |
| 20260505211708 | 62 | 0.0 | 0.0 | 0.00 | 0.00 | 0.00 | 51 | 1021.1 | |
| 20260505210709 | 63 | 0.0 | 0.0 | 0.00 | 0.00 | 0.00 | 50 | 1021.2 | |
| 20260505205708 | 63 | 0.0 | 0.0 | 0.00 | 0.00 | 0.00 | 49 | 1021.2 | |
| 20260505204709 | 63 | 0.0 | 0.0 | 0.00 | 0.00 | 0.00 | 49 | 1021.1 | |
| 20260505203709 | 64 | 0.0 | 0.0 | 0.00 | 0.00 | 0.00 | 49 | 1021.2 | |
| 20260505202709 | 65 | 0.0 | 0.0 | 0.00 | 0.00 | 0.00 | 47 | 1021.1 | |
| 20260505201709 | 65 | 0.0 | 0.0 | 0.00 | 0.00 | 0.00 | 46 | 1021.1 | |
| 20260505195709 | 66 | 0.0 | 0.0 | 0.00 | 0.00 | 0.00 | 45 | 1021.0 | |
| 20260505194710 | 66 | 0.0 | 0.0 | 0.00 | 0.00 | 0.00 | 45 | 1020.9 | |
| 20260505193709 | 66 | 0.0 | 0.0 | 0.00 | 0.00 | 0.00 | 44 | 1020.9 | |
| 20260505192709 | 66 | 0.0 | 0.0 | 0.00 | 0.00 | 0.00 | 44 | 1021.0 | |
| 20260505191709 | 66 | 0.0 | 0.0 | 0.00 | 0.00 | 0.00 | 44 | 1020.9 | |
| 20260505185709 | 67 | 0.0 | 0.0 | 0.00 | 0.00 | 0.00 | 42 | 1021.0 | |
| 20260505184709 | 67 | 0.0 | 0.0 | 0.00 | 0.00 | 0.00 | 43 | 1020.9 | |
| 20260505183709 | 66 | 0.0 | 0.0 | 0.00 | 0.00 | 0.00 | 44 | 1020.8 | |
| 20260505182709 | 66 | 0.0 | 0.0 | 0.00 | 0.00 | 0.00 | 46 | 1020.9 | |
| 20260505181709 | 67 | 0.0 | 0.0 | 0.00 | 0.00 | 0.00 | 45 | 1020.9 | |
| 20260505180709 | 67 | 0.0 | 0.0 | 0.00 | 0.00 | 0.00 | 46 | 1020.8 | |
| 20260505175709 | 67 | 0.0 | 0.0 | 0.00 | 0.00 | 0.00 | 46 | 1020.8 | |
| 20260505174709 | 67 | 0.0 | 0.0 | 0.00 | 0.00 | 0.00 | 46 | 1020.8 | |
| 20260505173709 | 68 | 0.0 | 0.0 | 0.00 | 0.00 | 0.00 | 46 | 1020.9 | |
| 20260505172709 | 68 | 0.0 | 0.0 | 0.00 | 0.00 | 0.00 | 47 | 1020.8 | |
| 20260505171709 | 68 | 0.0 | 0.0 | 0.00 | 0.00 | 0.00 | 46 | 1020.8 | |
| 20260505170709 | 69 | 0.0 | 0.0 | 0.00 | 0.00 | 0.00 | 45 | 1020.8 | |
| 20260505165709 | 69 | 0.0 | 0.0 | 0.00 | 0.00 | 0.00 | 44 | 1020.7 | |
| 20260505164709 | 70 | 0.0 | 0.0 | 0.00 | 0.00 | 0.00 | 42 | 1020.7 | |
| 20260505163709 | 71 | 0.0 | 0.0 | 0.00 | 0.00 | 0.00 | 41 | 1020.6 | |
| 20260505162709 | 73 | 0.0 | 0.0 | 0.00 | 0.00 | 0.00 | 41 | 1020.5 | |
| 20260505161709 | 73 | 0.0 | 0.0 | 0.00 | 0.00 | 0.00 | 39 | 1020.5 | |
| 20260505160709 | 74 | 0.0 | 0.0 | 0.00 | 0.00 | 0.00 | 39 | 1020.4 | |
| 20260505152709 | 76 | 0.0 | 0.0 | 0.00 | 0.00 | 0.00 | 36 | 1020.0 | |
| 20260505151709 | 78 | 0.0 | 0.0 | 0.00 | 0.00 | 0.00 | 33 | 1019.8 | |
| 20260505150709 | 79 | 0.0 | 0.0 | 0.00 | 0.00 | 0.00 | 31 | 1019.8 | |
| 20260505124709 | 81 | 0.0 | 0.0 | 0.00 | 0.00 | 0.00 | 21 | 1020.6 | |
| 20260505123709 | 81 | 0.0 | 0.0 | 0.00 | 0.00 | 0.00 | 20 | 1020.6 | |
| 20260505122709 | 81 | 0.0 | 0.0 | 0.00 | 0.00 | 0.00 | 20 | 1020.7 | |
| 20260505121709 | 80 | 0.0 | 0.0 | 0.00 | 0.00 | 0.00 | 22 | 1020.9 | |
| 20260505120709 | 82 | 0.0 | 0.0 | 0.00 | 0.00 | 0.00 | 21 | 1020.9 | |
| 20260505115709 | 82 | 0.0 | 0.0 | 0.00 | 0.00 | 0.00 | 23 | 1021.0 | |
| 20260505114709 | 80 | 0.0 | 0.0 | 0.00 | 0.00 | 0.00 | 24 | 1021.1 | |
| 20260505113709 | 80 | 0.0 | 0.0 | 0.00 | 0.00 | 0.00 | 25 | 1021.1 | |
| 20260505112709 | 81 | 0.0 | 0.0 | 0.00 | 0.00 | 0.00 | 23 | 1021.2 | |
| 20260505111709 | 82 | 0.0 | 0.0 | 0.00 | 0.00 | 0.00 | 23 | 1021.3 | |
| 20260505110709 | 80 | 0.0 | 0.0 | 0.00 | 0.00 | 0.00 | 24 | 1021.4 | |
| 20260505101709 | 83 | 0.0 | 0.0 | 0.00 | 0.00 | 0.00 | 24 | 1021.7 | |
| 20260505100709 | 85 | 0.0 | 0.0 | 0.00 | 0.00 | 0.00 | 23 | 1021.7 | |
| 20260505095709 | 84 | 0.0 | 0.0 | 0.00 | 0.00 | 0.00 | 23 | 1021.8 | |
| 20260505094709 | 83 | 0.0 | 0.0 | 0.00 | 0.00 | 0.00 | 24 | 1021.9 | |
| 20260505093709 | 86 | 0.0 | 0.0 | 0.00 | 0.00 | 0.00 | 26 | 1021.9 | |
| 20260505092709 | 81 | 0.0 | 0.0 | 0.00 | 0.00 | 0.00 | 29 | 1022.1 | |
| 20260505091710 | 76 | 0.0 | 0.0 | 0.00 | 0.00 | 0.00 | 30 | 1022.2 | |
| 20260505090709 | 81 | 0.0 | 0.0 | 0.00 | 0.00 | 0.00 | 29 | 1022.3 | |
| 20260505085709 | 82 | 0.0 | 0.0 | 0.00 | 0.00 | 0.00 | 29 | 1022.3 | |
| 20260505084709 | 76 | 0.0 | 0.0 | 0.00 | 0.00 | 0.00 | 30 | 1022.3 | |
| 20260505083709 | 78 | 0.0 | 0.0 | 0.00 | 0.00 | 0.00 | 30 | 1022.4 | |
| 20260505082710 | 78 | 0.0 | 0.0 | 0.00 | 0.00 | 0.00 | 31 | 1022.6 | |
| 20260505081710 | 79 | 0.0 | 0.0 | 0.00 | 0.00 | 0.00 | 29 | 1022.6 | |
| 20260505080710 | 78 | 0.0 | 0.0 | 0.00 | 0.00 | 0.00 | 29 | 1022.7 | |
| 20260505075710 | 74 | 0.0 | 0.0 | 0.00 | 0.00 | 0.00 | 33 | 1022.8 | |
| 20260505074710 | 73 | 0.0 | 0.0 | 0.00 | 0.00 | 0.00 | 34 | 1022.9 | |
| 20260505073710 | 73 | 0.0 | 0.0 | 0.00 | 0.00 | 0.00 | 36 | 1023.0 | |
| 20260505072710 | 72 | 0.0 | 0.0 | 0.00 | 0.00 | 0.00 | 38 | 1023.1 | |
| 20260505071710 | 70 | 0.0 | 0.0 | 0.00 | 0.00 | 0.00 | 39 | 1023.2 | |
| 20260505070710 | 69 | 0.0 | 0.0 | 0.00 | 0.00 | 0.00 | 41 | 1023.3 | |
| 20260505065710 | 67 | 0.0 | 0.0 | 0.00 | 0.00 | 0.00 | 43 | 1023.3 | |
| 20260505064710 | 65 | 0.0 | 0.0 | 0.00 | 0.00 | 0.00 | 43 | 1023.3 | |
| 20260505063710 | 65 | 0.0 | 0.0 | 0.00 | 0.00 | 0.00 | 46 | 1023.3 | |
| 20260505062710 | 66 | 0.0 | 0.0 | 0.00 | 0.00 | 0.00 | 46 | 1023.2 | |
| 20260505061710 | 66 | 0.0 | 0.0 | 0.00 | 0.00 | 0.00 | 43 | 1023.2 | |
| 20260505060710 | 65 | 0.0 | 0.0 | 0.00 | 0.00 | 0.00 | 46 | 1023.3 | |
| 20260505055710 | 64 | 0.0 | 0.0 | 0.00 | 0.00 | 0.00 | 46 | 1023.2 | |
| 20260505054710 | 62 | 0.0 | 0.0 | 0.00 | 0.00 | 0.00 | 48 | 1023.2 | |
| 20260505053710 | 61 | 0.0 | 0.0 | 0.00 | 0.00 | 0.00 | 50 | 1023.3 |